createdAt,value
2018-09-08T00:00:02.996Z,17.50
2018-09-08T00:02:31.724Z,17.50
2018-09-08T00:05:00.470Z,17.50
2018-09-08T00:07:34.378Z,17.50
2018-09-08T00:10:03.133Z,17.40
2018-09-08T00:12:32.566Z,17.40
2018-09-08T00:15:06.762Z,17.40
2018-09-08T00:17:40.754Z,17.40
2018-09-08T00:20:14.681Z,17.30
2018-09-08T00:22:48.818Z,17.30
2018-09-08T00:25:23.010Z,17.20
2018-09-08T00:27:55.958Z,17.20
2018-09-08T00:30:24.684Z,17.10
2018-09-08T00:32:53.403Z,17.00
2018-09-08T00:35:22.130Z,17.00
2018-09-08T00:37:50.946Z,17.00
2018-09-08T00:40:19.760Z,17.00
2018-09-08T00:42:48.484Z,17.00
2018-09-08T00:45:17.215Z,17.10
2018-09-08T00:47:45.925Z,17.00
2018-09-08T00:50:15.666Z,17.10
2018-09-08T00:52:44.396Z,17.00
2018-09-08T00:55:13.102Z,16.90
2018-09-08T00:57:41.869Z,17.00
2018-09-08T01:00:10.622Z,17.00
2018-09-08T01:02:39.299Z,16.90
2018-09-08T01:05:08.060Z,16.90
2018-09-08T01:07:36.781Z,16.90
2018-09-08T01:10:05.506Z,16.80
2018-09-08T01:12:34.609Z,16.80
2018-09-08T01:15:03.495Z,16.80
2018-09-08T01:17:32.241Z,16.80
2018-09-08T01:20:00.961Z,16.80
2018-09-08T01:22:29.673Z,16.80
2018-09-08T01:24:58.395Z,16.70
2018-09-08T01:27:27.132Z,16.60
2018-09-08T01:29:55.870Z,16.50
2018-09-08T01:32:24.592Z,16.50
2018-09-08T01:34:53.331Z,16.40
2018-09-08T01:37:22.063Z,16.40
2018-09-08T01:39:50.820Z,16.30
2018-09-08T01:42:19.585Z,16.30
2018-09-08T01:44:48.295Z,16.20
2018-09-08T01:47:17.024Z,16.30
2018-09-08T01:49:45.741Z,16.30
2018-09-08T01:52:14.449Z,16.30
2018-09-08T01:54:43.146Z,16.30
2018-09-08T01:57:11.857Z,16.20
2018-09-08T01:59:40.701Z,16.20
2018-09-08T02:02:09.383Z,16.30
2018-09-08T02:04:38.093Z,16.30
2018-09-08T02:07:06.789Z,16.30
2018-09-08T02:09:35.544Z,16.20
2018-09-08T02:12:04.293Z,16.20
2018-09-08T02:14:33.110Z,16.10
2018-09-08T02:17:01.807Z,16.10
2018-09-08T02:19:30.538Z,16.00
2018-09-08T02:21:59.262Z,16.10
2018-09-08T02:24:28.296Z,16.00
2018-09-08T02:26:57.053Z,16.00
2018-09-08T02:29:25.772Z,15.90
2018-09-08T02:31:54.493Z,15.90
2018-09-08T02:34:23.207Z,15.80
2018-09-08T02:36:51.955Z,15.80
2018-09-08T02:39:20.696Z,15.80
2018-09-08T02:41:49.401Z,15.80
2018-09-08T02:44:18.131Z,16.00
2018-09-08T02:46:47.030Z,16.00
2018-09-08T02:49:15.841Z,16.00
2018-09-08T02:51:43.675Z,16.00
2018-09-08T02:54:11.478Z,15.90
2018-09-08T02:56:39.275Z,15.90
2018-09-08T02:59:07.133Z,15.90
2018-09-08T03:01:34.984Z,15.80
2018-09-08T03:04:02.750Z,15.80
2018-09-08T03:06:30.512Z,15.80
2018-09-08T03:08:58.324Z,15.80
2018-09-08T03:11:26.113Z,15.80
2018-09-08T03:13:53.913Z,15.80
2018-09-08T03:16:21.705Z,15.80
2018-09-08T03:18:49.497Z,15.80
2018-09-08T03:21:17.305Z,15.60
2018-09-08T03:23:45.093Z,15.60
2018-09-08T03:26:12.867Z,15.70
2018-09-08T03:28:40.657Z,15.70
2018-09-08T03:31:08.468Z,15.60
2018-09-08T03:33:36.301Z,15.60
2018-09-08T03:36:04.050Z,15.60
2018-09-08T03:38:31.875Z,15.70
2018-09-08T03:40:59.641Z,15.60
2018-09-08T03:43:27.447Z,15.60
2018-09-08T03:45:55.237Z,15.60
2018-09-08T03:48:23.003Z,15.50
2018-09-08T03:50:50.799Z,15.60
2018-09-08T03:53:18.595Z,15.50
2018-09-08T03:55:46.445Z,15.60
2018-09-08T03:58:14.265Z,15.70
2018-09-08T04:00:42.156Z,15.70
2018-09-08T04:03:10.827Z,15.60
2018-09-08T04:05:39.678Z,15.50
2018-09-08T04:08:08.395Z,15.50
2018-09-08T04:10:37.124Z,15.40
2018-09-08T04:13:05.995Z,15.50
2018-09-08T04:15:34.864Z,15.60
2018-09-08T04:18:03.678Z,15.40
2018-09-08T04:20:32.416Z,15.40
2018-09-08T04:23:01.134Z,15.40
2018-09-08T04:25:30.037Z,15.40
2018-09-08T04:27:58.998Z,15.40
2018-09-08T04:30:27.870Z,15.40
2018-09-08T04:32:56.746Z,15.30
2018-09-08T04:35:25.778Z,15.40
2018-09-08T04:37:54.687Z,15.40
2018-09-08T04:40:23.544Z,15.50
2018-09-08T04:42:52.254Z,15.40
2018-09-08T04:45:20.990Z,15.50
2018-09-08T04:47:49.690Z,15.50
2018-09-08T04:50:18.422Z,15.50
2018-09-08T04:52:47.137Z,15.40
2018-09-08T04:55:15.853Z,15.40
2018-09-08T04:57:45.142Z,15.30
2018-09-08T05:00:13.911Z,15.40
2018-09-08T05:02:42.671Z,15.30
2018-09-08T05:05:11.360Z,15.20
2018-09-08T05:07:40.135Z,15.10
2018-09-08T05:10:08.850Z,15.10
2018-09-08T05:12:37.718Z,15.20
2018-09-08T05:15:07.015Z,15.10
2018-09-08T05:17:35.865Z,15.20
2018-09-08T05:20:04.719Z,15.20
2018-09-08T05:22:33.489Z,15.20
2018-09-08T05:25:02.292Z,15.10
2018-09-08T05:27:31.305Z,15.20
2018-09-08T05:30:00.074Z,15.10
2018-09-08T05:32:28.842Z,15.00
2018-09-08T05:34:57.614Z,15.00
2018-09-08T05:37:26.381Z,15.00
2018-09-08T05:39:55.108Z,15.10
2018-09-08T05:42:23.843Z,15.10
2018-09-08T05:44:52.752Z,15.10
2018-09-08T05:47:21.524Z,15.10
2018-09-08T05:49:50.330Z,15.10
2018-09-08T05:52:19.050Z,15.20
2018-09-08T05:54:47.760Z,15.20
2018-09-08T05:57:16.836Z,15.20
2018-09-08T05:59:45.570Z,15.10
2018-09-08T06:02:14.350Z,15.20
2018-09-08T06:04:43.162Z,15.20
2018-09-08T06:07:11.898Z,15.20
2018-09-08T06:09:40.616Z,15.20
2018-09-08T06:12:09.334Z,15.20
2018-09-08T06:14:38.102Z,15.20
2018-09-08T06:17:06.838Z,15.20
2018-09-08T06:19:35.634Z,15.20
2018-09-08T06:22:04.348Z,15.30
2018-09-08T06:24:33.226Z,15.20
2018-09-08T06:27:01.859Z,15.20
2018-09-08T06:29:30.605Z,15.30
2018-09-08T06:31:59.334Z,15.30
2018-09-08T06:34:28.068Z,15.30
2018-09-08T06:36:56.820Z,15.40
2018-09-08T06:39:25.562Z,15.40
2018-09-08T06:41:55.273Z,15.50
2018-09-08T06:44:23.983Z,15.50
2018-09-08T06:46:52.698Z,15.50
2018-09-08T06:49:21.431Z,15.50
2018-09-08T06:51:50.838Z,15.50
2018-09-08T06:54:20.101Z,15.60
2018-09-08T06:56:48.853Z,15.60
2018-09-08T06:59:17.590Z,15.70
2018-09-08T07:01:46.562Z,15.70
2018-09-08T07:04:15.411Z,15.70
2018-09-08T07:06:44.163Z,15.70
2018-09-08T07:09:13.759Z,15.80
2018-09-08T07:11:42.496Z,15.80
2018-09-08T07:14:11.241Z,15.80
2018-09-08T07:16:40.005Z,15.80
2018-09-08T07:19:08.711Z,15.80
2018-09-08T07:21:37.886Z,15.90
2018-09-08T07:24:06.589Z,15.90
2018-09-08T07:26:35.333Z,16.00
2018-09-08T07:29:04.042Z,16.00
2018-09-08T07:31:37.088Z,16.00
2018-09-08T07:34:05.923Z,16.10
2018-09-08T07:36:34.702Z,16.10
2018-09-08T07:39:04.063Z,16.20
2018-09-08T07:41:32.821Z,16.20
2018-09-08T07:44:01.558Z,16.20
2018-09-08T07:46:30.343Z,16.20
2018-09-08T07:48:59.118Z,16.30
2018-09-08T07:51:28.076Z,16.20
2018-09-08T07:53:56.852Z,16.30
2018-09-08T07:56:25.638Z,16.30
2018-09-08T07:58:54.389Z,16.40
2018-09-08T08:01:23.094Z,16.40
2018-09-08T08:03:51.917Z,16.40
2018-09-08T08:06:20.734Z,16.40
2018-09-08T08:08:49.633Z,16.50
2018-09-08T08:11:18.361Z,16.50
2018-09-08T08:13:47.088Z,16.50
2018-09-08T08:16:15.805Z,16.50
2018-09-08T08:18:45.766Z,16.60
2018-09-08T08:21:14.462Z,16.60
2018-09-08T08:23:43.193Z,16.60
2018-09-08T08:26:11.927Z,16.70
2018-09-08T08:28:40.682Z,16.70
2018-09-08T08:31:09.578Z,16.70
2018-09-08T08:33:38.330Z,16.80
2018-09-08T08:36:07.078Z,16.80
2018-09-08T08:38:35.858Z,16.80
2018-09-08T08:41:04.576Z,16.80
2018-09-08T08:43:33.453Z,16.90
2018-09-08T08:46:02.162Z,16.90
2018-09-08T08:48:31.264Z,17.00
2018-09-08T08:51:11.257Z,17.00
2018-09-08T08:53:51.318Z,17.00
2018-09-08T08:56:20.145Z,17.10
2018-09-08T08:58:49.290Z,17.10
2018-09-08T09:01:18.047Z,17.10
2018-09-08T09:03:46.815Z,17.20
2018-09-08T09:06:15.493Z,17.30
2018-09-08T09:08:44.588Z,17.30
2018-09-08T09:11:13.279Z,17.40
2018-09-08T09:13:41.988Z,17.50
2018-09-08T09:16:10.762Z,17.50
2018-09-08T09:18:51.245Z,17.60
2018-09-08T09:21:31.293Z,17.80
2018-09-08T09:24:49.254Z,17.90
2018-09-08T09:27:17.829Z,18.00
2018-09-08T09:29:46.625Z,18.30
2018-09-08T09:32:15.357Z,18.50
2018-09-08T09:34:44.053Z,18.80
2018-09-08T09:37:12.839Z,19.10
2018-09-08T09:39:41.599Z,19.30
2018-09-08T09:42:10.381Z,19.50
2018-09-08T09:44:39.194Z,19.50
2018-09-08T09:47:07.972Z,19.40
2018-09-08T09:49:36.756Z,19.60
2018-09-08T09:52:05.500Z,19.60
2018-09-08T09:54:34.249Z,19.60
2018-09-08T09:57:03.054Z,19.60
2018-09-08T09:59:32.131Z,19.60
2018-09-08T10:02:39.020Z,19.70
2018-09-08T10:05:09.889Z,19.90
2018-09-08T10:07:38.674Z,20.00
2018-09-08T10:10:08.673Z,20.20
2018-09-08T10:12:37.564Z,20.50
2018-09-08T10:15:06.745Z,20.70
2018-09-08T10:17:36.129Z,21.00
2018-09-08T10:20:05.658Z,21.40
2018-09-08T10:22:34.439Z,21.10
2018-09-08T10:25:04.197Z,21.40
2018-09-08T10:27:33.246Z,21.60
2018-09-08T10:30:02.497Z,22.00
2018-09-08T10:32:31.298Z,22.00
2018-09-08T10:35:00.171Z,22.40
2018-09-08T10:37:28.935Z,22.50
2018-09-08T10:39:57.662Z,22.90
2018-09-08T10:42:26.496Z,23.30
2018-09-08T10:44:55.304Z,23.40
2018-09-08T10:47:24.085Z,22.80
2018-09-08T10:49:52.857Z,22.60
2018-09-08T10:52:29.460Z,22.40
2018-09-08T10:54:58.179Z,22.80
2018-09-08T10:57:26.998Z,23.30
2018-09-08T10:59:55.858Z,23.40
2018-09-08T11:02:24.915Z,23.40
2018-09-08T11:04:53.524Z,23.80
2018-09-08T11:07:22.263Z,24.10
2018-09-08T11:09:50.963Z,24.30
2018-09-08T11:12:19.765Z,24.50
2018-09-08T11:14:48.477Z,24.40
2018-09-08T11:17:17.263Z,24.50
2018-09-08T11:19:46.065Z,24.50
2018-09-08T11:22:15.127Z,24.10
2018-09-08T11:24:43.918Z,24.20
2018-09-08T11:27:12.695Z,24.40
2018-09-08T11:29:41.435Z,24.50
2018-09-08T11:32:10.222Z,24.60
2018-09-08T11:34:39.074Z,24.10
2018-09-08T11:37:07.849Z,23.50
2018-09-08T11:39:36.718Z,23.10
2018-09-08T11:42:05.462Z,22.80
2018-09-08T11:44:34.230Z,22.60
2018-09-08T11:47:03.019Z,22.30
2018-09-08T11:49:31.785Z,22.20
2018-09-08T11:52:00.505Z,22.00
2018-09-08T11:54:29.267Z,21.80
2018-09-08T11:56:57.964Z,21.70
2018-09-08T11:59:26.733Z,21.60
2018-09-08T12:01:55.595Z,21.60
2018-09-08T12:04:24.387Z,21.60
2018-09-08T12:06:53.189Z,21.40
2018-09-08T12:09:21.960Z,21.30
2018-09-08T12:11:51.403Z,21.30
2018-09-08T12:14:20.318Z,21.20
2018-09-08T12:16:48.990Z,21.20
2018-09-08T12:19:17.850Z,21.20
2018-09-08T12:21:46.572Z,21.10
2018-09-08T12:24:15.323Z,21.00
2018-09-08T12:26:44.962Z,20.90
2018-09-08T12:29:13.678Z,21.00
2018-09-08T12:31:42.428Z,20.90
2018-09-08T12:34:11.214Z,20.80
2018-09-08T12:36:39.994Z,20.80
2018-09-08T12:39:08.970Z,20.80
2018-09-08T12:41:37.776Z,20.80
2018-09-08T12:44:06.752Z,20.80
2018-09-08T12:46:35.562Z,20.80
2018-09-08T12:49:04.334Z,20.80
2018-09-08T12:51:33.092Z,20.70
2018-09-08T12:54:01.817Z,20.80
2018-09-08T12:56:30.542Z,20.70
2018-09-08T12:58:59.345Z,20.70
2018-09-08T13:01:28.049Z,20.70
2018-09-08T13:03:56.825Z,20.60
2018-09-08T13:06:25.627Z,20.70
2018-09-08T13:08:54.365Z,20.70
2018-09-08T13:11:23.105Z,20.70
2018-09-08T13:13:51.927Z,20.70
2018-09-08T13:16:21.393Z,20.60
2018-09-08T13:18:50.133Z,20.70
2018-09-08T13:21:18.867Z,20.70
2018-09-08T13:23:47.612Z,20.70
2018-09-08T13:26:16.347Z,20.70
2018-09-08T13:28:45.109Z,20.60
2018-09-08T13:31:13.847Z,20.60
2018-09-08T13:33:42.652Z,20.70
2018-09-08T13:36:11.363Z,20.70
2018-09-08T13:38:40.304Z,20.80
2018-09-08T13:41:09.029Z,20.80
2018-09-08T13:43:37.793Z,20.80
2018-09-08T13:46:06.564Z,20.80
2018-09-08T13:48:35.376Z,20.80
2018-09-08T13:51:04.445Z,20.70
2018-09-08T13:53:33.313Z,20.70
2018-09-08T13:56:02.074Z,20.70
2018-09-08T13:58:30.916Z,20.80
2018-09-08T14:00:59.661Z,20.80
2018-09-08T14:03:28.432Z,20.80
2018-09-08T14:05:57.176Z,20.70
2018-09-08T14:08:25.906Z,20.80
2018-09-08T14:10:54.696Z,20.80
2018-09-08T14:13:23.414Z,20.90
2018-09-08T14:15:52.162Z,20.90
2018-09-08T14:18:20.856Z,20.90
2018-09-08T14:20:49.654Z,20.80
2018-09-08T14:23:18.408Z,20.80
2018-09-08T14:25:47.099Z,20.80
2018-09-08T14:28:16.334Z,20.80
2018-09-08T14:30:45.054Z,20.80
2018-09-08T14:33:13.885Z,20.80
2018-09-08T14:35:42.607Z,20.80
2018-09-08T14:38:11.315Z,20.80
2018-09-08T14:40:40.061Z,20.70
2018-09-08T14:43:08.758Z,20.70
2018-09-08T14:45:37.495Z,20.80
2018-09-08T14:48:06.306Z,20.80
2018-09-08T14:50:35.022Z,20.80
2018-09-08T14:53:03.788Z,20.70
2018-09-08T14:55:32.457Z,20.70
2018-09-08T14:58:01.221Z,20.70
2018-09-08T15:00:29.939Z,20.60
2018-09-08T15:02:58.703Z,20.70
2018-09-08T15:05:27.429Z,20.70
2018-09-08T15:07:56.266Z,20.70
2018-09-08T15:10:25.028Z,20.70
2018-09-08T15:12:53.885Z,20.70
2018-09-08T15:15:22.649Z,20.70
2018-09-08T15:17:51.638Z,20.70
2018-09-08T15:20:20.373Z,20.70
2018-09-08T15:22:49.097Z,20.70
2018-09-08T15:25:17.825Z,20.70
2018-09-08T15:27:46.531Z,20.70
2018-09-08T15:30:15.253Z,20.70
2018-09-08T15:32:43.993Z,20.60
2018-09-08T15:35:12.718Z,20.60
2018-09-08T15:37:41.427Z,20.70
2018-09-08T15:40:10.229Z,20.60
2018-09-08T15:42:38.940Z,20.60
2018-09-08T15:45:07.664Z,20.60
2018-09-08T15:47:37.600Z,20.60
2018-09-08T15:50:06.438Z,20.60
2018-09-08T15:52:35.202Z,20.60
2018-09-08T15:55:03.980Z,20.50
2018-09-08T15:57:32.741Z,20.50
2018-09-08T16:00:01.470Z,20.60
2018-09-08T16:02:30.209Z,20.60
2018-09-08T16:04:58.954Z,20.60
2018-09-08T16:07:27.718Z,20.60
2018-09-08T16:09:56.493Z,20.60
2018-09-08T16:12:25.262Z,20.60
2018-09-08T16:14:54.052Z,20.60
2018-09-08T16:17:22.800Z,20.60
2018-09-08T16:19:52.555Z,20.60
2018-09-08T16:22:21.270Z,20.60
2018-09-08T16:24:56.612Z,20.60
2018-09-08T16:27:25.385Z,20.60
2018-09-08T16:29:54.165Z,20.60
2018-09-08T16:32:22.995Z,20.60
2018-09-08T16:34:52.372Z,20.60
2018-09-08T16:37:21.296Z,20.50
2018-09-08T16:39:50.088Z,20.60
2018-09-08T16:42:18.819Z,20.60
2018-09-08T16:44:48.154Z,20.60
2018-09-08T16:47:16.833Z,20.60
2018-09-08T16:49:45.531Z,20.60
2018-09-08T16:52:14.352Z,20.60
2018-09-08T16:54:43.029Z,20.60
2018-09-08T16:57:11.791Z,20.50
2018-09-08T16:59:40.550Z,20.40
2018-09-08T17:02:09.322Z,20.40
2018-09-08T17:04:38.046Z,20.40
2018-09-08T17:07:06.775Z,20.30
2018-09-08T17:09:35.527Z,20.20
2018-09-08T17:12:04.232Z,20.20
2018-09-08T17:14:33.006Z,20.20
2018-09-08T17:17:01.774Z,20.10
2018-09-08T17:19:30.517Z,20.10
2018-09-08T17:21:59.282Z,20.10
2018-09-08T17:24:28.103Z,20.00
2018-09-08T17:26:56.845Z,20.00
2018-09-08T17:29:25.771Z,20.00
2018-09-08T17:31:54.526Z,19.90
2018-09-08T17:34:23.238Z,19.90
2018-09-08T17:36:52.105Z,19.90
2018-09-08T17:39:20.882Z,19.80
2018-09-08T17:41:50.425Z,19.80
2018-09-08T17:44:20.282Z,19.80
2018-09-08T17:46:48.998Z,19.70
2018-09-08T17:49:17.721Z,19.70
2018-09-08T17:51:46.446Z,19.70
2018-09-08T17:54:15.230Z,19.60
2018-09-08T17:56:43.983Z,19.50
2018-09-08T17:59:13.148Z,19.50
2018-09-08T18:01:42.765Z,19.50
2018-09-08T18:04:11.467Z,19.50
2018-09-08T18:06:40.326Z,19.50
2018-09-08T22:27:09.298Z,17.30
2018-09-08T22:29:38.946Z,17.30
2018-09-08T22:32:07.801Z,17.30
2018-09-08T22:34:36.653Z,17.30
2018-09-08T22:37:06.053Z,17.30
2018-09-08T22:39:34.896Z,17.30
2018-09-08T22:42:03.771Z,17.30
2018-09-08T22:44:32.629Z,17.30
2018-09-08T22:47:01.503Z,17.30
2018-09-08T22:49:30.314Z,17.30
2018-09-08T22:52:03.306Z,17.20
2018-09-08T22:54:32.974Z,17.20
2018-09-08T22:57:01.889Z,17.20
2018-09-08T22:59:30.754Z,17.10
2018-09-08T23:01:59.519Z,17.10
2018-09-08T23:04:28.241Z,17.10
2018-09-08T23:06:56.989Z,17.10
2018-09-08T23:09:25.721Z,17.10
2018-09-08T23:11:54.467Z,17.10
2018-09-08T23:14:23.169Z,17.00
2018-09-08T23:16:51.870Z,17.00
2018-09-08T23:19:20.591Z,17.00
2018-09-08T23:21:49.307Z,16.90
2018-09-08T23:24:18.583Z,16.90
2018-09-08T23:26:47.442Z,16.90
2018-09-08T23:29:16.187Z,16.90
2018-09-08T23:31:45.069Z,16.90
2018-09-08T23:34:13.795Z,16.80
2018-09-08T23:36:42.502Z,16.80
2018-09-08T23:39:11.230Z,16.80
2018-09-08T23:41:39.909Z,16.80
2018-09-08T23:44:08.630Z,16.80
2018-09-08T23:46:37.326Z,16.70
2018-09-08T23:49:06.010Z,16.70
2018-09-08T23:51:34.762Z,16.70
2018-09-08T23:54:03.442Z,16.70
2018-09-08T23:56:32.184Z,16.80
2018-09-08T23:59:00.884Z,16.80
